Time;durP1;ratioP1;P1;durP2;ratioP2;P2;SDS_P1;SDS_P2;PMS_P1;PMS_P2;Temp;Humidity;BMP_temperature;BMP_pressure;BME280_temperature;BME280_humidity;BME280_pressure;Samples;Min_cycle;Max_cycle;Signal;HPM_P1;HPM_P2
2022/09/30 00:00:40;;;;;;;;;;;;;;;7.51;100.00;100666.03;5073796;28;19924;-49
2022/09/30 00:03:09;;;;;;;;;;;;;;;7.53;100.00;100669.44;5075971;28;19920;-59
2022/09/30 00:05:37;;;;;;;;;;;;;;;7.56;100.00;100659.63;5074881;28;20326;-51
2022/09/30 00:08:05;;;;;;;;;;;;;;;7.63;100.00;100659.31;5073251;28;19927;-60
2022/09/30 00:10:33;;;;;;;;;;;;;;;7.42;100.00;100665.63;5073756;28;19928;-60
2022/09/30 00:13:01;;;;;;;;;;;;;;;7.47;100.00;100664.53;5073252;28;19955;-60
2022/09/30 00:15:28;;;;;;;;;;;;;;;7.38;100.00;100665.88;5074397;28;19920;-61
2022/09/30 00:17:58;;;;;;;;;;;;;;;7.25;100.00;100670.94;5075962;28;19924;-61
2022/09/30 00:20:27;;;;;;;;;;;;;;;7.15;100.00;100664.53;5073001;28;20022;-49
2022/09/30 00:22:55;;;;;;;;;;;;;;;7.15;100.00;100660.13;5072851;28;19920;-60
2022/09/30 00:25:23;;;;;;;;;;;;;;;7.16;100.00;100658.34;5072765;28;19925;-60
2022/09/30 00:27:51;;;;;;;;;;;;;;;7.19;100.00;100664.25;5072504;28;20346;-60
2022/09/30 00:30:19;;;;;;;;;;;;;;;7.23;100.00;100673.63;5072525;28;19924;-60
2022/09/30 00:32:46;;;;;;;;;;;;;;;7.15;100.00;100677.59;5069703;28;19921;-59
2022/09/30 00:35:14;;;;;;;;;;;;;;;7.21;100.00;100669.41;5073182;28;20587;-50
2022/09/30 00:37:50;;;;;;;;;;;;;;;7.30;100.00;100662.84;5075492;28;19925;-52
2022/09/30 00:40:19;;;;;;;;;;;;;;;7.26;100.00;100670.84;5075271;28;20359;-50
2022/09/30 00:42:48;;;;;;;;;;;;;;;7.07;100.00;100667.53;5074232;28;19920;-51
2022/09/30 00:45:16;;;;;;;;;;;;;;;6.98;100.00;100673.25;5072786;28;20039;-47
2022/09/30 00:47:49;;;;;;;;;;;;;;;6.96;100.00;100664.66;5070932;28;19929;-52
2022/09/30 00:50:20;;;;;;;;;;;;;;;7.15;100.00;100667.97;5072129;28;20000;-53
2022/09/30 00:52:52;;;;;;;;;;;;;;;7.03;100.00;100673.84;5071702;28;19920;-49
2022/09/30 00:55:29;;;;;;;;;;;;;;;7.06;100.00;100665.84;5074865;28;20302;-51
2022/09/30 00:58:01;;;;;;;;;;;;;;;7.06;100.00;100671.06;5075048;28;20325;-51
2022/09/30 01:00:29;;;;;;;;;;;;;;;7.01;100.00;100668.72;5074751;28;19924;-53
2022/09/30 01:02:57;;;;;;;;;;;;;;;6.87;100.00;100671.19;5070618;28;19924;-53
2022/09/30 01:05:26;;;;;;;;;;;;;;;6.88;100.00;100673.72;5073154;28;19931;-51
2022/09/30 01:07:57;;;;;;;;;;;;;;;7.00;100.00;100672.25;5074417;28;20016;-51
2022/09/30 01:10:25;;;;;;;;;;;;;;;7.00;100.00;100682.69;5072577;28;19969;-49
2022/09/30 01:12:57;;;;;;;;;;;;;;;6.91;100.00;100676.19;5071517;28;20378;-48
2022/09/30 01:15:33;;;;;;;;;;;;;;;6.97;100.00;100679.38;5072879;28;19970;-48
2022/09/30 01:18:05;;;;;;;;;;;;;;;6.96;100.00;100681.16;5074607;28;19920;-50
2022/09/30 01:20:48;;;;;;;;;;;;;;;6.88;100.00;100686.78;5074592;28;19943;-51
2022/09/30 01:23:28;;;;;;;;;;;;;;;6.90;100.00;100687.56;5072470;28;19974;-51
2022/09/30 01:26:04;;;;;;;;;;;;;;;6.89;100.00;100687.66;5072121;28;19920;-51
2022/09/30 01:28:47;;;;;;;;;;;;;;;6.80;100.00;100681.13;5070877;28;19970;-51
2022/09/30 01:31:23;;;;;;;;;;;;;;;6.81;100.00;100677.59;5073065;28;19970;-48
2022/09/30 01:33:55;;;;;;;;;;;;;;;6.82;100.00;100678.44;5073999;28;19960;-50
2022/09/30 01:36:28;;;;;;;;;;;;;;;6.71;100.00;100685.06;5074357;28;19921;-47
2022/09/30 01:39:02;;;;;;;;;;;;;;;6.58;100.00;100684.84;5073450;28;19924;-59
2022/09/30 01:41:35;;;;;;;;;;;;;;;6.52;100.00;100687.78;5071158;28;20659;-59
2022/09/30 01:44:11;;;;;;;;;;;;;;;6.53;100.00;100683.38;5072699;28;19986;-48
2022/09/30 01:46:43;;;;;;;;;;;;;;;6.60;100.00;100692.63;5070198;28;19924;-59
2022/09/30 01:49:13;;;;;;;;;;;;;;;6.66;100.00;100686.22;5071879;28;19920;-47
2022/09/30 01:51:45;;;;;;;;;;;;;;;6.67;100.00;100682.69;5072210;28;19920;-51
2022/09/30 01:54:17;;;;;;;;;;;;;;;6.60;100.00;100679.56;5070787;28;20401;-50
2022/09/30 01:56:46;;;;;;;;;;;;;;;6.63;100.00;100678.56;5069650;28;20129;-48
2022/09/30 01:59:15;;;;;;;;;;;;;;;6.54;100.00;100672.84;5069517;28;19970;-51
2022/09/30 02:01:49;;;;;;;;;;;;;;;6.53;100.00;100673.78;5068013;28;19924;-50
2022/09/30 02:04:19;;;;;;;;;;;;;;;6.60;100.00;100674.31;5070855;28;19927;-49
2022/09/30 02:06:50;;;;;;;;;;;;;;;6.61;100.00;100678.59;5072534;28;20394;-51
2022/09/30 02:09:21;;;;;;;;;;;;;;;6.53;100.00;100668.56;5073306;28;20333;-59
2022/09/30 02:11:49;;;;;;;;;;;;;;;6.56;100.00;100668.41;5070910;28;19946;-59
2022/09/30 02:14:21;;;;;;;;;;;;;;;6.47;100.00;100678.47;5071650;28;19920;-60
2022/09/30 02:16:54;;;;;;;;;;;;;;;6.37;100.00;100673.72;5070200;28;19924;-48
2022/09/30 02:19:25;;;;;;;;;;;;;;;6.41;100.00;100679.63;5071101;28;19920;-53
2022/09/30 02:21:56;;;;;;;;;;;;;;;6.24;100.00;100683.94;5070635;28;19920;-52
2022/09/30 02:24:26;;;;;;;;;;;;;;;6.22;100.00;100684.94;5071080;28;19924;-51
2022/09/30 02:26:55;;;;;;;;;;;;;;;6.19;100.00;100682.44;5070860;28;19978;-51
2022/09/30 02:29:27;;;;;;;;;;;;;;;6.28;100.00;100678.56;5070836;28;19974;-50
2022/09/30 02:32:00;;;;;;;;;;;;;;;6.36;100.00;100686.84;5068997;28;19920;-51
2022/09/30 02:34:29;;;;;;;;;;;;;;;6.44;100.00;100687.31;5070589;28;19970;-52
2022/09/30 02:37:00;;;;;;;;;;;;;;;6.34;100.00;100692.16;5071292;28;19920;-52
2022/09/30 02:39:31;;;;;;;;;;;;;;;6.24;100.00;100696.13;5070840;28;20025;-51
2022/09/30 02:42:09;;;;;;;;;;;;;;;6.26;100.00;100696.94;5072349;28;19926;-48
2022/09/30 02:44:38;;;;;;;;;;;;;;;6.17;100.00;100687.75;5070574;28;20282;-48
2022/09/30 02:47:11;;;;;;;;;;;;;;;6.16;100.00;100693.94;5068653;28;19920;-49
2022/09/30 02:49:44;;;;;;;;;;;;;;;6.11;100.00;100692.44;5072867;28;19999;-50
2022/09/30 02:52:18;;;;;;;;;;;;;;;6.13;100.00;100696.66;5071278;28;19927;-48
2022/09/30 02:54:50;;;;;;;;;;;;;;;6.20;100.00;100692.84;5069907;28;19982;-49
2022/09/30 02:57:22;;;;;;;;;;;;;;;6.15;100.00;100693.97;5070318;28;20386;-50
2022/09/30 02:59:51;;;;;;;;;;;;;;;6.18;100.00;100697.28;5070959;28;19924;-51
2022/09/30 03:02:23;;;;;;;;;;;;;;;6.06;100.00;100695.28;5068147;28;20355;-50
2022/09/30 03:04:51;;;;;;;;;;;;;;;6.03;100.00;100695.44;5070247;28;19947;-49
2022/09/30 03:07:18;;;;;;;;;;;;;;;5.97;100.00;100693.06;5070457;28;20015;-49
2022/09/30 03:09:47;;;;;;;;;;;;;;;5.82;100.00;100692.91;5070289;28;20004;-49
2022/09/30 03:12:25;;;;;;;;;;;;;;;5.79;100.00;100695.63;5069776;28;19981;-48
2022/09/30 03:15:02;;;;;;;;;;;;;;;5.82;100.00;100694.66;5070534;28;19962;-53
2022/09/30 03:17:42;;;;;;;;;;;;;;;5.83;100.00;100691.97;5071005;28;20315;-47
2022/09/30 03:20:19;;;;;;;;;;;;;;;5.83;100.00;100694.56;5072671;28;20382;-49
2022/09/30 03:22:56;;;;;;;;;;;;;;;5.95;100.00;100707.97;5072479;28;19948;-51
2022/09/30 03:25:32;;;;;;;;;;;;;;;5.83;100.00;100691.97;5072849;28;19947;-51
2022/09/30 03:28:04;;;;;;;;;;;;;;;5.84;100.00;100695.44;5071301;28;19931;-50
2022/09/30 03:30:36;;;;;;;;;;;;;;;5.78;100.00;100701.81;5070295;28;20288;-51
2022/09/30 03:33:09;;;;;;;;;;;;;;;5.78;100.00;100703.53;5068156;28;19925;-48
2022/09/30 03:35:43;;;;;;;;;;;;;;;5.75;100.00;100710.63;5070274;28;19920;-49
2022/09/30 03:38:13;;;;;;;;;;;;;;;5.70;100.00;100725.63;5069751;28;19920;-46
2022/09/30 03:40:44;;;;;;;;;;;;;;;5.69;100.00;100729.16;5069539;28;19974;-45
2022/09/30 03:43:17;;;;;;;;;;;;;;;5.72;100.00;100736.00;5069491;28;20341;-48
2022/09/30 03:45:50;;;;;;;;;;;;;;;5.65;100.00;100737.22;5070117;28;19986;-51
2022/09/30 03:48:21;;;;;;;;;;;;;;;5.74;100.00;100732.41;5068383;28;19924;-51
2022/09/30 03:50:49;;;;;;;;;;;;;;;5.75;100.00;100733.25;5070390;28;19990;-50
2022/09/30 03:53:17;;;;;;;;;;;;;;;5.73;100.00;100740.31;5069586;28;20324;-49
2022/09/30 03:55:48;;;;;;;;;;;;;;;5.66;100.00;100746.72;5070761;28;19956;-47
2022/09/30 03:58:16;;;;;;;;;;;;;;;5.70;100.00;100735.22;5073124;28;20444;-48
2022/09/30 04:00:47;;;;;;;;;;;;;;;5.70;100.00;100730.84;5073618;28;19967;-49
2022/09/30 04:03:15;;;;;;;;;;;;;;;5.66;100.00;100734.53;5071893;28;20007;-47
2022/09/30 04:05:45;;;;;;;;;;;;;;;5.59;100.00;100733.97;5073779;28;19920;-47
2022/09/30 04:08:15;;;;;;;;;;;;;;;5.62;100.00;100732.09;5073102;28;19924;-47
2022/09/30 04:10:43;;;;;;;;;;;;;;;5.54;100.00;100733.31;5073668;28;20278;-47
2022/09/30 04:13:12;;;;;;;;;;;;;;;5.54;100.00;100751.59;5072788;28;19927;-59
2022/09/30 04:15:40;;;;;;;;;;;;;;;5.55;100.00;100750.66;5071896;28;19920;-46
2022/09/30 04:18:08;;;;;;;;;;;;;;;5.63;100.00;100750.34;5070766;28;19931;-58
2022/09/30 04:20:38;;;;;;;;;;;;;;;5.66;100.00;100762.38;5075371;28;19920;-57
2022/09/30 04:23:08;;;;;;;;;;;;;;;5.62;100.00;100760.81;5075555;28;20011;-57
2022/09/30 04:25:36;;;;;;;;;;;;;;;5.55;100.00;100763.72;5073654;28;20370;-48
2022/09/30 04:28:03;;;;;;;;;;;;;;;5.56;100.00;100764.56;5072812;28;19956;-50
2022/09/30 04:30:31;;;;;;;;;;;;;;;5.52;100.00;100769.09;5072888;28;19924;-50
2022/09/30 04:33:00;;;;;;;;;;;;;;;5.49;100.00;100763.97;5070921;28;19927;-57
2022/09/30 04:35:28;;;;;;;;;;;;;;;5.41;100.00;100780.00;5072857;28;20371;-58
2022/09/30 04:37:56;;;;;;;;;;;;;;;5.49;100.00;100781.41;5074657;28;19920;-49
2022/09/30 04:40:25;;;;;;;;;;;;;;;5.39;100.00;100781.81;5074705;28;19928;-49
2022/09/30 04:42:57;;;;;;;;;;;;;;;5.36;100.00;100784.56;5072883;28;19920;-47
2022/09/30 04:45:25;;;;;;;;;;;;;;;5.39;100.00;100779.19;5072259;28;19920;-46
2022/09/30 04:47:53;;;;;;;;;;;;;;;5.34;100.00;100783.78;5071325;28;19981;-48
2022/09/30 04:50:21;;;;;;;;;;;;;;;5.30;100.00;100787.44;5072423;28;19982;-50
2022/09/30 04:52:49;;;;;;;;;;;;;;;5.33;100.00;100786.44;5072800;28;19955;-49
2022/09/30 04:55:17;;;;;;;;;;;;;;;5.37;100.00;100788.00;5070515;28;20307;-51
2022/09/30 04:57:46;;;;;;;;;;;;;;;5.29;100.00;100792.72;5072438;28;19970;-48
2022/09/30 05:00:14;;;;;;;;;;;;;;;5.33;100.00;100786.44;5072320;28;19964;-49
2022/09/30 05:02:42;;;;;;;;;;;;;;;5.34;100.00;100790.75;5070286;28;20306;-48
2022/09/30 05:05:10;;;;;;;;;;;;;;;5.25;100.00;100792.03;5072064;28;19924;-50
2022/09/30 05:07:40;;;;;;;;;;;;;;;5.30;100.00;100808.28;5072288;28;19920;-47
2022/09/30 05:10:09;;;;;;;;;;;;;;;5.35;100.00;100808.94;5072240;28;20011;-48
2022/09/30 05:12:37;;;;;;;;;;;;;;;5.25;100.00;100799.84;5072099;28;19920;-50
2022/09/30 05:15:07;;;;;;;;;;;;;;;5.29;100.00;100803.16;5072218;28;19920;-50
2022/09/30 05:17:35;;;;;;;;;;;;;;;5.12;100.00;100799.50;5073496;28;19973;-47
2022/09/30 05:20:03;;;;;;;;;;;;;;;5.06;100.00;100791.97;5072149;28;20011;-49
2022/09/30 05:22:31;;;;;;;;;;;;;;;5.02;100.00;100801.66;5073310;28;19920;-48
2022/09/30 05:25:01;;;;;;;;;;;;;;;5.06;100.00;100802.41;5072234;28;19966;-49
2022/09/30 05:27:29;;;;;;;;;;;;;;;5.12;100.00;100802.13;5071461;28;19926;-50
2022/09/30 05:29:57;;;;;;;;;;;;;;;5.05;100.00;100798.09;5073705;28;20444;-51
2022/09/30 05:32:26;;;;;;;;;;;;;;;5.01;100.00;100809.56;5069520;28;20429;-46
2022/09/30 05:34:55;;;;;;;;;;;;;;;5.05;100.00;100811.97;5071544;28;19921;-50
2022/09/30 05:37:23;;;;;;;;;;;;;;;5.10;100.00;100803.09;5073254;28;20321;-50
2022/09/30 05:39:50;;;;;;;;;;;;;;;5.07;100.00;100811.88;5074324;28;20388;-48
2022/09/30 05:42:18;;;;;;;;;;;;;;;5.07;100.00;100811.88;5073548;28;20015;-48
2022/09/30 05:44:46;;;;;;;;;;;;;;;5.12;100.00;100809.94;5072102;28;19981;-57
2022/09/30 05:47:14;;;;;;;;;;;;;;;5.12;100.00;100817.75;5070710;28;19921;-46
2022/09/30 05:49:44;;;;;;;;;;;;;;;5.10;100.00;100826.56;5073589;28;19952;-51
2022/09/30 05:52:13;;;;;;;;;;;;;;;5.08;100.00;100837.91;5070761;28;19924;-58
2022/09/30 05:54:44;;;;;;;;;;;;;;;5.08;100.00;100832.72;5071595;28;19920;-58
2022/09/30 05:57:13;;;;;;;;;;;;;;;5.04;100.00;100845.91;5069891;28;19920;-58
2022/09/30 05:59:41;;;;;;;;;;;;;;;4.97;100.00;100847.94;5071415;28;19920;-49
2022/09/30 06:02:09;;;;;;;;;;;;;;;5.07;100.00;100853.59;5068969;28;19920;-51
2022/09/30 06:04:37;;;;;;;;;;;;;;;5.14;100.00;100862.88;5071250;28;19920;-47
2022/09/30 06:07:06;;;;;;;;;;;;;;;5.07;100.00;100849.25;5073266;28;19920;-49
2022/09/30 06:09:37;;;;;;;;;;;;;;;5.20;100.00;100857.38;5071261;28;19950;-46
2022/09/30 06:12:05;;;;;;;;;;;;;;;5.19;100.00;100850.47;5071244;28;19920;-48
2022/09/30 06:14:33;;;;;;;;;;;;;;;5.22;100.00;100855.59;5071006;28;19927;-47
2022/09/30 06:17:01;;;;;;;;;;;;;;;5.23;100.00;100852.03;5069024;28;19924;-51
2022/09/30 06:19:29;;;;;;;;;;;;;;;5.27;100.00;100857.16;5070422;28;19963;-49
2022/09/30 06:22:00;;;;;;;;;;;;;;;5.34;100.00;100859.41;5070822;28;20010;-46
2022/09/30 06:24:29;;;;;;;;;;;;;;;5.41;100.00;100858.25;5070390;28;19924;-54
2022/09/30 06:26:57;;;;;;;;;;;;;;;5.44;100.00;100865.09;5072281;28;19920;-49
2022/09/30 06:29:25;;;;;;;;;;;;;;;5.53;100.00;100859.47;5071125;28;19989;-59
2022/09/30 06:31:53;;;;;;;;;;;;;;;5.42;100.00;100874.72;5068959;28;19970;-48
2022/09/30 06:34:21;;;;;;;;;;;;;;;5.47;100.00;100879.75;5072795;28;20309;-47
2022/09/30 06:36:48;;;;;;;;;;;;;;;5.49;100.00;100877.94;5069621;28;19928;-49
2022/09/30 06:39:16;;;;;;;;;;;;;;;5.50;100.00;100882.25;5070781;28;20003;-48
2022/09/30 06:41:45;;;;;;;;;;;;;;;5.46;100.00;100878.91;5071826;28;20383;-48
2022/09/30 06:44:15;;;;;;;;;;;;;;;5.48;100.00;100871.00;5071206;28;19921;-48
2022/09/30 06:46:43;;;;;;;;;;;;;;;5.51;100.00;100870.91;5067957;28;19960;-51
2022/09/30 06:49:20;;;;;;;;;;;;;;;5.69;100.00;100874.47;5070840;28;20338;-47
2022/09/30 06:51:48;;;;;;;;;;;;;;;5.76;100.00;100874.09;5070787;28;19924;-46
2022/09/30 06:54:18;;;;;;;;;;;;;;;5.97;100.00;100881.91;5070467;28;19921;-48
2022/09/30 06:56:47;;;;;;;;;;;;;;;5.91;100.00;100877.78;5070564;28;19920;-50
2022/09/30 06:59:16;;;;;;;;;;;;;;;5.97;100.00;100876.69;5069459;28;19973;-48
2022/09/30 07:01:45;;;;;;;;;;;;;;;6.08;100.00;100870.97;5067989;28;19925;-47
2022/09/30 07:04:13;;;;;;;;;;;;;;;6.19;100.00;100866.13;5071223;28;19920;-50
2022/09/30 07:06:40;;;;;;;;;;;;;;;6.28;100.00;100867.44;5072600;28;19920;-48
2022/09/30 07:09:09;;;;;;;;;;;;;;;6.37;100.00;100871.41;5073051;28;19920;-50
2022/09/30 07:11:38;;;;;;;;;;;;;;;6.49;100.00;100864.75;5070376;28;19992;-47
2022/09/30 07:14:09;;;;;;;;;;;;;;;6.69;100.00;100866.41;5070754;28;19920;-47
2022/09/30 07:16:37;;;;;;;;;;;;;;;6.96;100.00;100869.44;5067556;28;19921;-58
2022/09/30 07:19:09;;;;;;;;;;;;;;;7.14;100.00;100866.81;5070284;28;19920;-58
2022/09/30 07:21:36;;;;;;;;;;;;;;;7.36;100.00;100871.81;5070415;28;19920;-58
2022/09/30 07:24:04;;;;;;;;;;;;;;;7.55;100.00;100872.56;5071204;28;19971;-58
2022/09/30 07:26:32;;;;;;;;;;;;;;;7.94;100.00;100879.22;5071631;28;19924;-58
2022/09/30 07:29:02;;;;;;;;;;;;;;;8.25;100.00;100869.72;5070788;28;19920;-59
2022/09/30 07:31:32;;;;;;;;;;;;;;;8.27;100.00;100875.69;5075102;28;19965;-59
2022/09/30 07:34:05;;;;;;;;;;;;;;;8.56;100.00;100870.69;5076263;28;19974;-58
2022/09/30 07:36:35;;;;;;;;;;;;;;;8.49;100.00;100874.56;5075796;28;19924;-58
2022/09/30 07:39:05;;;;;;;;;;;;;;;8.79;100.00;100879.00;5074471;28;19924;-58
2022/09/30 07:41:34;;;;;;;;;;;;;;;9.01;100.00;100880.38;5076187;28;19920;-58
2022/09/30 07:44:04;;;;;;;;;;;;;;;8.94;100.00;100879.91;5075109;28;20279;-59
2022/09/30 07:46:37;;;;;;;;;;;;;;;9.19;100.00;100886.34;5072644;28;19978;-59
2022/09/30 07:49:07;;;;;;;;;;;;;;;9.42;100.00;100884.97;5073991;28;19924;-59
2022/09/30 07:51:37;;;;;;;;;;;;;;;9.76;100.00;100881.19;5074815;28;19982;-58
2022/09/30 07:54:06;;;;;;;;;;;;;;;9.81;100.00;100879.09;5074807;28;19924;-59
2022/09/30 07:56:37;;;;;;;;;;;;;;;10.04;100.00;100881.25;5073556;28;19920;-60
2022/09/30 07:59:26;;;;;;;;;;;;;;;10.23;100.00;100881.78;5075677;28;20285;-59
2022/09/30 08:01:55;;;;;;;;;;;;;;;10.24;100.00;100869.47;5074723;28;19966;-60
2022/09/30 08:04:24;;;;;;;;;;;;;;;10.44;100.00;100874.38;5073790;28;19932;-60
2022/09/30 08:06:53;;;;;;;;;;;;;;;10.77;100.00;100875.75;5074929;28;19921;-59
2022/09/30 08:09:22;;;;;;;;;;;;;;;11.14;100.00;100883.00;5075883;28;20280;-60
2022/09/30 08:11:50;;;;;;;;;;;;;;;11.14;100.00;100877.75;5074578;28;19924;-60
2022/09/30 08:14:20;;;;;;;;;;;;;;;11.29;100.00;100884.59;5075736;28;20287;-60
2022/09/30 08:16:48;;;;;;;;;;;;;;;11.44;100.00;100884.50;5073526;28;20005;-60
2022/09/30 08:19:18;;;;;;;;;;;;;;;11.69;100.00;100877.56;5073146;28;20382;-59
2022/09/30 08:21:46;;;;;;;;;;;;;;;11.75;100.00;100882.38;5074585;28;20011;-60
2022/09/30 08:24:14;;;;;;;;;;;;;;;11.80;100.00;100875.00;5074346;28;19921;-60
2022/09/30 08:26:43;;;;;;;;;;;;;;;12.06;100.00;100875.00;5075505;28;20435;-61
2022/09/30 08:29:13;;;;;;;;;;;;;;;12.16;100.00;100874.25;5074284;28;19965;-61
2022/09/30 08:31:48;;;;;;;;;;;;;;;12.26;100.00;100876.22;5075427;28;19927;-61
2022/09/30 08:34:18;;;;;;;;;;;;;;;12.46;100.00;100872.13;5073867;28;19920;-62
2022/09/30 08:36:46;;;;;;;;;;;;;;;12.49;100.00;100870.13;5072986;28;19921;-62
2022/09/30 08:39:13;;;;;;;;;;;;;;;12.54;100.00;100875.03;5072847;28;19921;-62
2022/09/30 08:41:52;;;;;;;;;;;;;;;12.79;100.00;100875.91;5071963;28;19963;-63
2022/09/30 08:44:26;;;;;;;;;;;;;;;12.95;100.00;100878.22;5072305;28;20379;-63
2022/09/30 08:46:58;;;;;;;;;;;;;;;13.02;100.00;100875.03;5070847;28;19924;-63
2022/09/30 08:49:35;;;;;;;;;;;;;;;13.00;100.00;100882.19;5073794;28;19921;-63
2022/09/30 08:52:04;;;;;;;;;;;;;;;13.27;100.00;100885.53;5073216;28;20337;-63
2022/09/30 08:54:35;;;;;;;;;;;;;;;13.22;100.00;100885.88;5074033;28;19950;-65
2022/09/30 08:57:07;;;;;;;;;;;;;;;13.35;100.00;100888.44;5075031;28;19927;-64
2022/09/30 08:59:38;;;;;;;;;;;;;;;13.33;100.00;100891.19;5074937;28;19960;-63
2022/09/30 09:02:15;;;;;;;;;;;;;;;13.58;100.00;100889.34;5074200;28;19931;-63
2022/09/30 09:04:46;;;;;;;;;;;;;;;13.73;100.00;100886.47;5072889;28;19921;-64
2022/09/30 09:07:21;;;;;;;;;;;;;;;13.90;100.00;100882.50;5073560;28;20454;-64
2022/09/30 09:09:57;;;;;;;;;;;;;;;13.96;100.00;100885.53;5074727;28;20441;-63
2022/09/30 09:12:29;;;;;;;;;;;;;;;14.11;100.00;100887.91;5074555;28;20349;-64
2022/09/30 09:15:13;;;;;;;;;;;;;;;14.40;100.00;100882.06;5074595;28;19931;-66
2022/09/30 09:17:50;;;;;;;;;;;;;;;14.63;100.00;100878.44;5072286;28;19924;-63
2022/09/30 09:20:42;;;;;;;;;;;;;;;14.85;100.00;100871.38;5070753;28;19920;-64
2022/09/30 09:23:11;;;;;;;;;;;;;;;14.93;99.74;100871.59;5072380;28;19960;-64
2022/09/30 09:25:39;;;;;;;;;;;;;;;15.19;99.78;100876.53;5074431;28;20351;-64
2022/09/30 09:28:24;;;;;;;;;;;;;;;15.47;99.45;100877.63;5073014;28;19924;-64
2022/09/30 09:30:55;;;;;;;;;;;;;;;15.56;96.67;100878.69;5071430;28;20440;-65
2022/09/30 09:33:26;;;;;;;;;;;;;;;15.65;95.57;100869.94;5074001;28;19927;-64
2022/09/30 09:35:59;;;;;;;;;;;;;;;15.59;91.53;100874.94;5074092;28;19921;-65
2022/09/30 09:38:34;;;;;;;;;;;;;;;15.48;92.72;100867.91;5072164;28;19920;-64
2022/09/30 09:41:11;;;;;;;;;;;;;;;15.77;91.30;100862.72;5071149;28;19927;-65
2022/09/30 09:43:48;;;;;;;;;;;;;;;15.80;89.74;100872.25;5073714;28;19924;-64
2022/09/30 09:46:19;;;;;;;;;;;;;;;15.98;90.02;100878.63;5071922;28;19927;-64
2022/09/30 09:48:47;;;;;;;;;;;;;;;16.41;91.48;100859.88;5070769;28;19924;-63
2022/09/30 09:51:20;;;;;;;;;;;;;;;16.69;87.86;100874.16;5073139;28;19921;-64
2022/09/30 09:53:49;;;;;;;;;;;;;;;16.97;84.18;100872.47;5071626;28;19963;-64
2022/09/30 09:56:18;;;;;;;;;;;;;;;17.19;81.47;100879.31;5071347;28;19920;-65
2022/09/30 09:59:09;;;;;;;;;;;;;;;17.12;82.52;100883.50;5072753;28;19924;-65
2022/09/30 10:01:38;;;;;;;;;;;;;;;17.49;83.33;100887.22;5069511;28;19927;-65
2022/09/30 10:04:08;;;;;;;;;;;;;;;17.56;79.02;100893.63;5070965;28;20286;-64
2022/09/30 10:06:45;;;;;;;;;;;;;;;17.88;78.03;100873.78;5071937;28;19920;-65
2022/09/30 10:09:24;;;;;;;;;;;;;;;18.06;74.59;100869.41;5072444;28;19924;-65
2022/09/30 10:11:52;;;;;;;;;;;;;;;18.32;73.52;100874.00;5071270;28;19975;-65
2022/09/30 10:14:21;;;;;;;;;;;;;;;18.39;69.13;100874.22;5073006;28;20610;-65
2022/09/30 10:16:49;;;;;;;;;;;;;;;18.55;71.44;100870.91;5073365;28;19927;-66
2022/09/30 10:19:19;;;;;;;;;;;;;;;18.62;67.97;100869.31;5073413;28;19993;-65
2022/09/30 10:21:48;;;;;;;;;;;;;;;18.63;67.76;100878.97;5071913;28;19920;-66
2022/09/30 10:24:27;;;;;;;;;;;;;;;18.81;67.04;100868.31;5073537;28;20011;-66
2022/09/30 10:26:55;;;;;;;;;;;;;;;18.78;66.30;100868.63;5073501;28;20263;-67
2022/09/30 10:29:27;;;;;;;;;;;;;;;18.99;66.37;100864.81;5072091;28;19920;-66
2022/09/30 10:31:56;;;;;;;;;;;;;;;18.88;64.12;100860.56;5073346;28;19928;-66
2022/09/30 10:34:28;;;;;;;;;;;;;;;19.09;64.00;100861.06;5073202;28;19921;-66
2022/09/30 10:36:59;;;;;;;;;;;;;;;19.22;64.11;100851.84;5073209;28;20341;-56
2022/09/30 10:39:28;;;;;;;;;;;;;;;19.53;63.23;100859.38;5070868;28;19990;-57
2022/09/30 10:42:01;;;;;;;;;;;;;;;19.68;64.29;100852.44;5070448;28;19928;-65
2022/09/30 10:44:30;;;;;;;;;;;;;;;19.81;63.17;100854.69;5072645;28;19935;-66
2022/09/30 10:47:00;;;;;;;;;;;;;;;19.86;62.12;100868.38;5068798;28;20023;-66
2022/09/30 10:49:29;;;;;;;;;;;;;;;20.37;61.44;100860.38;5069783;28;20343;-67
2022/09/30 10:51:59;;;;;;;;;;;;;;;20.27;60.40;100855.19;5069577;28;19921;-67
2022/09/30 10:54:35;;;;;;;;;;;;;;;20.63;60.28;100854.06;5070246;28;19928;-67
2022/09/30 10:57:03;;;;;;;;;;;;;;;20.85;58.71;100857.13;5073013;28;19920;-67
2022/09/30 10:59:34;;;;;;;;;;;;;;;20.78;58.06;100851.59;5072902;28;19927;-67
2022/09/30 11:02:15;;;;;;;;;;;;;;;21.56;57.27;100860.06;5071636;28;19920;-67
2022/09/30 11:04:47;;;;;;;;;;;;;;;21.53;54.86;100855.03;5072388;28;20405;-68
2022/09/30 11:07:22;;;;;;;;;;;;;;;20.27;57.12;100855.19;5072833;28;19924;-68
2022/09/30 11:09:52;;;;;;;;;;;;;;;20.66;58.21;100852.91;5072898;28;20659;-67
2022/09/30 11:12:23;;;;;;;;;;;;;;;21.10;57.89;100850.75;5073190;28;19920;-68
2022/09/30 11:14:57;;;;;;;;;;;;;;;21.70;53.62;100851.28;5072760;28;19928;-68
2022/09/30 11:17:32;;;;;;;;;;;;;;;21.62;54.51;100848.66;5068198;28;19928;-67
2022/09/30 11:20:07;;;;;;;;;;;;;;;21.18;54.19;100841.88;5070347;28;19920;-69
2022/09/30 11:22:42;;;;;;;;;;;;;;;21.71;52.55;100842.25;5070482;28;19921;-68
2022/09/30 11:25:13;;;;;;;;;;;;;;;21.95;52.02;100832.44;5072090;28;19924;-69
2022/09/30 11:27:53;;;;;;;;;;;;;;;21.86;49.92;100834.34;5072644;28;19969;-68
2022/09/30 11:30:25;;;;;;;;;;;;;;;21.64;50.98;100838.63;5071827;28;19920;-68
2022/09/30 11:33:05;;;;;;;;;;;;;;;21.30;51.17;100837.00;5068463;28;19921;-58
2022/09/30 11:35:40;;;;;;;;;;;;;;;21.86;50.11;100841.53;5070829;28;19921;-67
2022/09/30 11:38:21;;;;;;;;;;;;;;;22.62;49.05;100833.75;5069487;28;20425;-58
2022/09/30 11:40:53;;;;;;;;;;;;;;;22.96;47.15;100830.59;5071496;28;19920;-59
2022/09/30 11:43:30;;;;;;;;;;;;;;;22.81;49.00;100828.88;5069661;28;19924;-67
2022/09/30 11:46:09;;;;;;;;;;;;;;;23.10;46.54;100833.50;5069441;28;19924;-59
2022/09/30 11:48:48;;;;;;;;;;;;;;;22.41;47.30;100821.81;5069386;28;19924;-59
2022/09/30 11:51:19;;;;;;;;;;;;;;;22.53;48.42;100819.56;5069964;28;19924;-60
2022/09/30 11:53:54;;;;;;;;;;;;;;;23.38;47.40;100816.78;5070445;28;19970;-58
2022/09/30 11:56:32;;;;;;;;;;;;;;;23.28;45.33;100819.75;5072028;28;19998;-59
2022/09/30 11:59:02;;;;;;;;;;;;;;;23.12;44.39;100813.56;5072373;28;19990;-67
2022/09/30 12:01:32;;;;;;;;;;;;;;;23.61;45.10;100819.38;5071451;28;20395;-67
2022/09/30 12:04:04;;;;;;;;;;;;;;;24.04;44.25;100807.94;5072527;28;20011;-68
2022/09/30 12:06:36;;;;;;;;;;;;;;;24.19;43.46;100807.91;5071062;28;19927;-68
2022/09/30 12:09:14;;;;;;;;;;;;;;;24.57;43.63;100799.56;5072447;28;19970;-68
2022/09/30 12:11:48;;;;;;;;;;;;;;;24.52;41.41;100800.16;5071802;28;19928;-58
2022/09/30 12:14:20;;;;;;;;;;;;;;;24.08;42.33;100802.00;5069801;28;20278;-66
2022/09/30 12:16:50;;;;;;;;;;;;;;;23.85;44.57;100804.81;5072421;28;20444;-58
2022/09/30 12:19:20;;;;;;;;;;;;;;;23.19;44.56;100805.59;5073902;28;19925;-67
2022/09/30 12:21:55;;;;;;;;;;;;;;;23.79;43.97;100795.66;5072761;28;19944;-68
2022/09/30 12:24:29;;;;;;;;;;;;;;;24.17;43.96;100796.50;5074840;28;20328;-68
2022/09/30 12:26:58;;;;;;;;;;;;;;;23.83;43.63;100795.28;5072749;28;19920;-68
2022/09/30 12:32:38;;;;;;;;;;;;;;;24.18;44.88;100790.13;5070440;28;19964;-68
2022/09/30 12:35:20;;;;;;;;;;;;;;;22.89;44.75;100785.91;5037247;28;20019;-67
2022/09/30 12:37:57;;;;;;;;;;;;;;;21.98;47.36;100785.75;5073648;28;19920;-67
2022/09/30 12:40:40;;;;;;;;;;;;;;;21.81;47.83;100783.16;5072232;28;19974;-58
2022/09/30 12:43:18;;;;;;;;;;;;;;;22.33;48.31;100778.16;5071218;28;19920;-59
2022/09/30 12:45:56;;;;;;;;;;;;;;;22.81;47.84;100775.28;5075181;28;19920;-59
2022/09/30 12:48:27;;;;;;;;;;;;;;;22.28;47.59;100776.03;5075123;28;19920;-58
2022/09/30 12:50:57;;;;;;;;;;;;;;;22.03;47.98;100775.34;5073636;28;19924;-59
2022/09/30 12:53:26;;;;;;;;;;;;;;;22.59;49.50;100775.13;5075088;28;19952;-58
2022/09/30 12:56:01;;;;;;;;;;;;;;;23.06;47.18;100776.69;5075468;28;19943;-59
2022/09/30 12:58:33;;;;;;;;;;;;;;;23.15;46.22;100768.59;5073254;28;19920;-58